createdAt,value
2019-01-06T00:02:15.782Z,47.11
2019-01-06T00:05:58.492Z,46.58
2019-01-06T00:09:25.184Z,46.31
2019-01-06T00:12:55.792Z,46.40
2019-01-06T00:16:29.296Z,47.87
2019-01-06T00:19:52.446Z,48.11
2019-01-06T00:23:32.001Z,48.74
2019-01-06T00:26:56.016Z,49.41
2019-01-06T00:30:19.088Z,50.17
2019-01-06T00:33:40.405Z,49.51
2019-01-06T00:37:13.766Z,49.05
2019-01-06T00:40:53.637Z,49.93
2019-01-06T00:44:27.276Z,49.84
2019-01-06T00:47:54.807Z,50.89
2019-01-06T00:51:18.283Z,49.57
2019-01-06T00:54:41.576Z,49.64
2019-01-06T00:58:21.224Z,49.50
2019-01-06T01:01:46.166Z,49.07
2019-01-06T01:05:22.857Z,49.49
2019-01-06T01:08:50.510Z,49.11
2019-01-06T01:12:21.104Z,49.01
2019-01-06T01:15:44.200Z,48.21
2019-01-06T01:19:17.775Z,48.49
2019-01-06T01:22:40.919Z,48.43
2019-01-06T01:26:09.274Z,49.06
2019-01-06T01:29:32.701Z,48.55
2019-01-06T01:33:03.190Z,48.01
2019-01-06T01:36:27.706Z,47.69
2019-01-06T01:39:55.004Z,48.11
2019-01-06T01:43:18.277Z,48.15
2019-01-06T01:47:00.924Z,47.90
2019-01-06T01:50:40.859Z,48.33
2019-01-06T01:54:11.371Z,47.84
2019-01-06T01:57:54.093Z,48.02
2019-01-06T02:01:13.143Z,47.91
2019-01-06T02:04:36.117Z,47.01
2019-01-06T02:08:00.834Z,46.91
2019-01-06T02:11:24.240Z,46.32
2019-01-06T02:14:57.948Z,45.65
2019-01-06T02:18:21.111Z,45.74
2019-01-06T02:21:45.024Z,45.63
2019-01-06T02:25:15.384Z,46.12
2019-01-06T02:28:49.342Z,45.75
2019-01-06T02:32:12.358Z,45.86
2019-01-06T02:35:35.519Z,45.37
2019-01-06T02:38:58.536Z,46.09
2019-01-06T02:42:38.161Z,46.44
2019-01-06T02:46:01.432Z,46.31
2019-01-06T02:49:37.986Z,46.57
2019-01-06T02:53:01.292Z,47.16
2019-01-06T02:56:25.754Z,46.99
2019-01-06T02:59:56.012Z,46.72
2019-01-06T03:03:20.490Z,46.24
2019-01-06T03:06:44.093Z,46.39
2019-01-06T03:10:08.584Z,46.23
2019-01-06T03:13:42.167Z,46.30
2019-01-06T03:17:15.811Z,46.56
2019-01-06T03:20:40.287Z,47.08
2019-01-06T03:24:04.695Z,46.78
2019-01-06T03:27:30.925Z,47.60
2019-01-06T03:30:54.130Z,47.53
2019-01-06T03:34:27.717Z,47.92
2019-01-06T03:37:55.301Z,48.35
2019-01-06T03:41:20.759Z,48.21
2019-01-06T03:44:57.538Z,48.08
2019-01-06T03:48:24.831Z,48.12
2019-01-06T03:51:48.161Z,48.40
2019-01-06T03:55:12.970Z,48.12
2019-01-06T03:58:49.672Z,48.12
2019-01-06T04:02:14.151Z,47.68
2019-01-06T04:05:53.201Z,47.28
2019-01-06T04:09:16.676Z,47.46
2019-01-06T04:12:40.025Z,47.21
2019-01-06T04:16:07.606Z,47.32
2019-01-06T04:19:47.436Z,47.84
2019-01-06T04:23:14.739Z,47.62
2019-01-06T04:26:37.880Z,47.30
2019-01-06T04:30:06.515Z,47.71
2019-01-06T04:33:31.028Z,47.67
2019-01-06T04:36:51.612Z,47.85
2019-01-06T04:40:34.561Z,48.39
2019-01-06T04:43:57.695Z,48.30
2019-01-06T04:47:22.152Z,48.14
2019-01-06T04:50:46.667Z,47.27
2019-01-06T04:54:15.830Z,47.17
2019-01-06T04:57:49.525Z,46.99
2019-01-06T05:01:14.013Z,47.02
2019-01-06T05:04:47.594Z,46.55
2019-01-06T05:08:10.083Z,46.95
2019-01-06T05:11:40.418Z,48.29
2019-01-06T05:15:04.932Z,47.81
2019-01-06T05:18:32.323Z,48.04
2019-01-06T05:21:56.949Z,48.26
2019-01-06T05:25:24.472Z,48.40
2019-01-06T05:29:01.015Z,48.06
2019-01-06T05:32:28.359Z,48.34
2019-01-06T05:35:51.437Z,48.44
2019-01-06T05:39:18.906Z,48.82
2019-01-06T05:42:45.845Z,49.55
2019-01-06T05:46:08.996Z,49.72
2019-01-06T05:49:33.366Z,50.32
2019-01-06T05:53:09.327Z,50.78
2019-01-06T05:56:23.914Z,50.49
2019-01-06T06:00:03.696Z,50.17
2019-01-06T06:03:28.395Z,50.16
2019-01-06T06:07:11.262Z,49.54
2019-01-06T06:10:37.612Z,50.25
2019-01-06T06:14:14.161Z,50.35
2019-01-06T06:17:38.722Z,50.70
2019-01-06T06:21:09.246Z,50.14
2019-01-06T06:24:36.776Z,49.90
2019-01-06T06:28:19.498Z,49.84
2019-01-06T06:31:43.959Z,49.82
2019-01-06T06:35:20.235Z,49.36
2019-01-06T06:38:48.395Z,48.99
2019-01-06T06:42:12.182Z,49.90
2019-01-06T06:45:29.974Z,50.05
2019-01-06T06:48:54.473Z,49.99
2019-01-06T06:52:21.746Z,50.76
2019-01-06T06:55:55.122Z,50.24
2019-01-06T06:59:18.553Z,50.03
2019-01-06T07:03:13.050Z,49.71
2019-01-06T07:06:36.587Z,49.62
2019-01-06T07:10:16.316Z,50.62
2019-01-06T07:13:41.174Z,50.49
2019-01-06T07:17:47.475Z,51.10
2019-01-06T07:21:14.801Z,51.55
2019-01-06T07:24:39.175Z,51.39
2019-01-06T07:28:03.621Z,51.14
2019-01-06T07:31:31.179Z,50.45
2019-01-06T07:34:54.396Z,50.02
2019-01-06T07:38:14.528Z,51.23
2019-01-06T07:41:44.914Z,52.38
2019-01-06T07:45:03.036Z,52.53
2019-01-06T07:48:37.093Z,51.74
2019-01-06T07:52:04.311Z,50.77
2019-01-06T07:55:44.020Z,51.22
2019-01-06T07:59:02.002Z,50.97
2019-01-06T08:02:26.489Z,51.17
2019-01-06T08:05:49.953Z,50.41
2019-01-06T08:09:12.977Z,50.64
2019-01-06T08:12:37.497Z,51.04
2019-01-06T08:16:16.649Z,51.61
2019-01-06T08:19:39.938Z,51.49
2019-01-06T08:23:03.395Z,52.78
2019-01-06T08:26:26.753Z,52.85
2019-01-06T08:29:49.786Z,52.64
2019-01-06T08:33:20.562Z,52.69
2019-01-06T08:36:43.729Z,53.08
2019-01-06T08:40:23.584Z,52.73
2019-01-06T08:43:50.839Z,52.56
2019-01-06T08:47:27.497Z,52.82
2019-01-06T08:50:50.782Z,52.69
2019-01-06T08:54:15.246Z,53.42
2019-01-06T08:57:35.586Z,52.93
2019-01-06T09:00:58.719Z,52.52
2019-01-06T09:04:26.218Z,52.21
2019-01-06T09:07:49.350Z,51.64
2019-01-06T09:11:25.798Z,51.39
2019-01-06T09:14:49.193Z,50.73
2019-01-06T09:18:12.691Z,50.23
2019-01-06T09:21:35.853Z,50.09
2019-01-06T09:24:59.231Z,50.73
2019-01-06T09:28:34.343Z,50.51
2019-01-06T09:32:02.321Z,50.96
2019-01-06T09:35:24.250Z,50.21
2019-01-06T09:38:58.038Z,50.11
2019-01-06T09:42:21.166Z,49.61
2019-01-06T09:45:44.719Z,49.66
2019-01-06T09:49:12.022Z,50.57
2019-01-06T09:52:39.332Z,50.57
2019-01-06T09:56:02.556Z,50.50
2019-01-06T09:59:28.335Z,50.61
2019-01-06T10:02:55.105Z,50.12
2019-01-06T10:06:28.395Z,49.94
2019-01-06T10:09:58.959Z,49.73
2019-01-06T10:13:23.540Z,49.82
2019-01-06T10:16:46.760Z,49.30
2019-01-06T10:20:14.049Z,49.48
2019-01-06T10:23:41.273Z,48.91
2019-01-06T10:27:21.016Z,49.17
2019-01-06T10:31:00.489Z,48.70
2019-01-06T10:34:23.992Z,48.50
2019-01-06T10:37:44.654Z,48.96
2019-01-06T10:41:09.105Z,48.56
2019-01-06T10:44:32.324Z,48.64
2019-01-06T10:48:08.777Z,48.05
2019-01-06T10:51:33.247Z,48.17
2019-01-06T10:54:56.762Z,48.70
2019-01-06T10:58:20.080Z,48.25
2019-01-06T11:01:43.567Z,48.54
2019-01-06T11:05:14.037Z,48.09
2019-01-06T11:08:33.055Z,48.14
2019-01-06T11:11:56.202Z,47.89
2019-01-06T11:15:23.809Z,47.81
2019-01-06T11:19:06.475Z,47.76
2019-01-06T11:22:40.173Z,47.17
2019-01-06T11:26:03.309Z,46.95
2019-01-06T11:29:31.639Z,47.00
2019-01-06T11:32:55.075Z,47.21
2019-01-06T11:36:18.260Z,47.23
2019-01-06T11:39:57.769Z,47.37
2019-01-06T11:43:37.442Z,47.16
2019-01-06T11:47:02.926Z,47.39
2019-01-06T11:50:27.548Z,47.54
2019-01-06T11:53:53.156Z,47.65
2019-01-06T11:57:16.273Z,47.46
2019-01-06T12:00:40.756Z,47.58
2019-01-06T12:04:04.608Z,47.50
2019-01-06T12:07:41.355Z,48.09
2019-01-06T12:11:11.929Z,48.20
2019-01-06T12:14:54.639Z,48.18
2019-01-06T12:18:17.696Z,48.12
2019-01-06T12:21:54.207Z,48.16
2019-01-06T12:25:21.650Z,48.43
2019-01-06T12:28:46.133Z,47.80
2019-01-06T12:32:09.576Z,47.96
2019-01-06T12:35:32.957Z,47.32
2019-01-06T12:39:00.593Z,47.67
2019-01-06T12:42:25.109Z,47.42
2019-01-06T12:45:59.364Z,47.12
2019-01-06T12:49:32.735Z,47.26
2019-01-06T12:53:09.481Z,47.34
2019-01-06T12:56:46.096Z,47.43
2019-01-06T13:00:22.755Z,47.28
2019-01-06T13:03:47.254Z,47.28
2019-01-06T13:07:15.770Z,47.40
2019-01-06T13:10:39.086Z,47.23
2019-01-06T13:14:03.596Z,47.21
2019-01-06T13:17:23.086Z,46.59
2019-01-06T13:20:48.355Z,46.08
2019-01-06T13:24:11.817Z,45.52
2019-01-06T13:27:42.367Z,45.98
2019-01-06T13:31:18.906Z,45.71
2019-01-06T13:34:49.151Z,45.37
2019-01-06T13:38:19.701Z,44.95
2019-01-06T13:41:44.145Z,45.05
2019-01-06T13:45:14.444Z,45.26
2019-01-06T13:48:42.104Z,44.77
2019-01-06T13:52:13.462Z,44.61
2019-01-06T13:55:50.413Z,44.24
2019-01-06T13:59:20.938Z,44.81
2019-01-06T14:02:54.567Z,44.58
2019-01-06T14:06:28.156Z,45.18
2019-01-06T14:10:01.705Z,44.68
2019-01-06T14:13:25.049Z,44.89
2019-01-06T14:16:53.268Z,45.36
2019-01-06T14:20:17.170Z,45.04
2019-01-06T14:23:44.833Z,44.73
2019-01-06T14:27:18.371Z,44.79
2019-01-06T14:30:51.930Z,44.84
2019-01-06T14:34:15.174Z,44.98
2019-01-06T14:37:51.766Z,44.74
2019-01-06T14:41:15.167Z,44.72
2019-01-06T14:44:38.676Z,44.75
2019-01-06T14:48:09.275Z,45.59
2019-01-06T14:51:33.771Z,45.76
2019-01-06T14:55:04.163Z,45.56
2019-01-06T14:58:31.390Z,45.54
2019-01-06T15:02:05.171Z,45.66
2019-01-06T15:05:38.482Z,46.04
2019-01-06T15:09:02.244Z,45.74
2019-01-06T15:12:28.279Z,45.75
2019-01-06T15:15:56.056Z,45.61
2019-01-06T15:19:28.421Z,45.58
2019-01-06T15:22:51.929Z,45.33
2019-01-06T15:26:15.485Z,45.34
2019-01-06T15:29:43.203Z,45.16
2019-01-06T15:33:16.863Z,45.56
2019-01-06T15:36:54.942Z,45.89
2019-01-06T15:40:18.452Z,46.12
2019-01-06T15:43:41.717Z,45.59
2019-01-06T15:47:06.148Z,45.73
2019-01-06T15:50:29.730Z,45.59
2019-01-06T15:54:10.568Z,46.13
2019-01-06T15:57:50.178Z,46.04
2019-01-06T16:01:33.114Z,46.48
2019-01-06T16:05:00.680Z,46.45
2019-01-06T16:08:23.478Z,46.26
2019-01-06T16:11:51.963Z,46.64
2019-01-06T16:15:15.427Z,46.97
2019-01-06T16:18:46.037Z,46.71
2019-01-06T16:22:19.578Z,46.33
2019-01-06T16:25:43.010Z,46.08
2019-01-06T16:29:10.563Z,46.15
2019-01-06T16:32:37.876Z,45.86
2019-01-06T16:36:17.749Z,46.40
2019-01-06T16:39:41.269Z,46.12
2019-01-06T16:43:05.057Z,46.25
2019-01-06T16:46:28.368Z,46.56
2019-01-06T16:49:51.872Z,46.39
2019-01-06T16:53:28.438Z,46.63
2019-01-06T16:56:56.149Z,47.01
2019-01-06T17:00:19.304Z,46.66
2019-01-06T17:03:49.887Z,46.17
2019-01-06T17:07:28.506Z,46.10
2019-01-06T17:10:51.598Z,46.14
2019-01-06T17:14:19.105Z,45.81
2019-01-06T17:17:58.700Z,45.62
2019-01-06T17:21:32.278Z,45.75
2019-01-06T17:25:05.885Z,45.80
2019-01-06T17:28:33.538Z,45.56
2019-01-06T17:31:56.914Z,45.31
2019-01-06T17:35:33.593Z,45.37
2019-01-06T17:39:07.077Z,45.41
2019-01-06T17:42:50.346Z,45.60
2019-01-06T17:46:30.002Z,45.47
2019-01-06T17:49:53.130Z,45.50
2019-01-06T17:53:26.668Z,45.61
2019-01-06T17:56:49.955Z,45.38
2019-01-06T18:00:11.149Z,45.13
2019-01-06T18:03:49.537Z,45.08
2019-01-06T18:07:12.838Z,45.31
2019-01-06T18:10:36.040Z,46.18
2019-01-06T18:14:06.518Z,45.60
2019-01-06T18:17:29.771Z,45.22
2019-01-06T18:20:54.238Z,45.28
2019-01-06T18:24:17.399Z,44.73
2019-01-06T18:27:40.565Z,44.66
2019-01-06T18:31:14.146Z,44.53
2019-01-06T18:34:38.755Z,44.58
2019-01-06T18:38:13.028Z,44.51
2019-01-06T18:41:34.858Z,44.74
2019-01-06T18:45:09.231Z,44.71
2019-01-06T18:48:30.799Z,44.90
2019-01-06T18:51:54.017Z,45.21
2019-01-06T18:55:18.523Z,45.13
2019-01-06T18:58:49.211Z,45.36
2019-01-06T19:02:12.324Z,45.20
2019-01-06T19:05:36.747Z,45.57
2019-01-06T19:09:08.704Z,45.26
2019-01-06T19:12:29.843Z,45.17
2019-01-06T19:15:52.963Z,45.46
2019-01-06T19:19:16.110Z,45.17
2019-01-06T19:22:52.766Z,45.00
2019-01-06T19:26:26.273Z,45.34
2019-01-06T19:29:50.547Z,45.19
2019-01-06T19:33:14.078Z,44.85
2019-01-06T19:36:37.324Z,45.01
2019-01-06T19:40:06.608Z,45.02
2019-01-06T19:43:29.814Z,45.11
2019-01-06T19:46:49.393Z,45.48
2019-01-06T19:50:13.863Z,45.43
2019-01-06T19:53:32.875Z,45.81
2019-01-06T19:56:52.444Z,45.38
2019-01-06T20:00:16.926Z,45.37
2019-01-06T20:03:44.510Z,44.95
2019-01-06T20:07:27.409Z,45.08
2019-01-06T20:10:57.078Z,45.18
2019-01-06T20:14:21.580Z,44.83
2019-01-06T20:18:01.605Z,44.93
2019-01-06T20:21:31.961Z,44.72
2019-01-06T20:24:59.373Z,45.13
2019-01-06T20:28:22.548Z,44.80
2019-01-06T20:31:56.035Z,44.91
2019-01-06T20:35:22.964Z,45.15
2019-01-06T20:38:53.432Z,45.52
2019-01-06T20:42:27.015Z,45.63
2019-01-06T20:45:50.102Z,45.28
2019-01-06T20:49:20.692Z,45.10
2019-01-06T20:52:51.334Z,44.79
2019-01-06T20:56:14.670Z,44.72
2019-01-06T20:59:54.594Z,45.16
2019-01-06T21:03:19.069Z,45.29
2019-01-06T21:06:46.298Z,45.88
2019-01-06T21:10:13.775Z,46.18
2019-01-06T21:13:36.937Z,46.26
2019-01-06T21:17:04.403Z,46.44
2019-01-06T21:20:27.827Z,46.97
2019-01-06T21:23:47.711Z,47.40
2019-01-06T21:27:27.651Z,47.76
2019-01-06T21:30:51.296Z,47.69
2019-01-06T21:34:15.827Z,48.34
2019-01-06T21:37:55.779Z,48.67
2019-01-06T21:41:29.591Z,49.20
2019-01-06T21:44:52.154Z,49.27
2019-01-06T21:48:28.774Z,49.14
2019-01-06T21:52:02.311Z,49.97
2019-01-06T21:55:25.638Z,49.71
2019-01-06T21:58:55.923Z,49.49
2019-01-06T22:02:23.655Z,49.92
2019-01-06T22:05:48.107Z,49.95
2019-01-06T22:09:11.414Z,49.87
2019-01-06T22:12:35.950Z,49.91
2019-01-06T22:16:03.233Z,50.46
2019-01-06T22:19:31.400Z,50.64
2019-01-06T22:22:55.815Z,50.54
2019-01-06T22:26:26.508Z,51.40
2019-01-06T22:29:49.916Z,50.55
2019-01-06T22:33:17.152Z,50.49
2019-01-06T22:36:48.184Z,50.16
2019-01-06T22:40:24.192Z,49.76
2019-01-06T22:43:51.837Z,49.98
2019-01-06T22:47:15.064Z,49.77
2019-01-06T22:50:42.644Z,49.84
2019-01-06T22:54:10.672Z,49.36
2019-01-06T22:57:44.566Z,49.90
2019-01-06T23:01:27.592Z,49.27
2019-01-06T23:04:55.088Z,49.21
2019-01-06T23:08:22.113Z,49.03
2019-01-06T23:11:45.481Z,49.34
2019-01-06T23:15:15.732Z,49.70
2019-01-06T23:18:49.632Z,49.29
2019-01-06T23:22:15.751Z,49.18
2019-01-06T23:25:39.216Z,49.07
2019-01-06T23:29:12.822Z,50.01
2019-01-06T23:32:36.034Z,49.87
2019-01-06T23:35:59.388Z,49.96
2019-01-06T23:39:24.006Z,49.75
2019-01-06T23:42:47.276Z,50.26
2019-01-06T23:46:10.423Z,50.11
2019-01-06T23:49:27.850Z,49.90
2019-01-06T23:52:58.468Z,50.19
2019-01-06T23:56:32.256Z,50.43
2019-01-06T23:59:56.771Z,50.95
